sensor_id;sensor_type;location;lat;lon;timestamp;temperature;humidity
59313;DHT22;45084;51.486;7.366;2023-12-28T00:00:04;7.90;99.90
59313;DHT22;45084;51.486;7.366;2023-12-28T00:02:30;7.90;99.90
59313;DHT22;45084;51.486;7.366;2023-12-28T00:04:56;7.90;99.90
59313;DHT22;45084;51.486;7.366;2023-12-28T00:07:21;7.80;99.90
59313;DHT22;45084;51.486;7.366;2023-12-28T00:09:47;7.70;99.90
59313;DHT22;45084;51.486;7.366;2023-12-28T00:12:12;7.70;99.90
59313;DHT22;45084;51.486;7.366;2023-12-28T00:14:38;7.60;99.90
59313;DHT22;45084;51.486;7.366;2023-12-28T00:17:04;7.60;99.90
59313;DHT22;45084;51.486;7.366;2023-12-28T00:19:29;7.60;99.90
59313;DHT22;45084;51.486;7.366;2023-12-28T00:21:55;7.50;99.90
59313;DHT22;45084;51.486;7.366;2023-12-28T00:24:21;7.50;99.90
59313;DHT22;45084;51.486;7.366;2023-12-28T00:26:46;7.50;99.90
59313;DHT22;45084;51.486;7.366;2023-12-28T00:29:12;7.50;99.90
59313;DHT22;45084;51.486;7.366;2023-12-28T00:31:37;7.50;99.90
59313;DHT22;45084;51.486;7.366;2023-12-28T00:34:03;7.40;99.90
59313;DHT22;45084;51.486;7.366;2023-12-28T00:36:29;7.50;99.90
59313;DHT22;45084;51.486;7.366;2023-12-28T00:38:54;7.40;99.90
59313;DHT22;45084;51.486;7.366;2023-12-28T00:41:20;7.40;99.90
59313;DHT22;45084;51.486;7.366;2023-12-28T00:43:45;7.40;99.90
59313;DHT22;45084;51.486;7.366;2023-12-28T00:46:11;7.40;99.90
59313;DHT22;45084;51.486;7.366;2023-12-28T00:48:36;7.40;99.90
59313;DHT22;45084;51.486;7.366;2023-12-28T00:51:02;7.40;99.90
59313;DHT22;45084;51.486;7.366;2023-12-28T00:53:27;7.40;99.90
59313;DHT22;45084;51.486;7.366;2023-12-28T00:55:53;7.50;99.90
59313;DHT22;45084;51.486;7.366;2023-12-28T00:58:19;7.40;99.90
59313;DHT22;45084;51.486;7.366;2023-12-28T01:00:44;7.40;99.90
59313;DHT22;45084;51.486;7.366;2023-12-28T01:03:10;7.50;99.90
59313;DHT22;45084;51.486;7.366;2023-12-28T01:05:35;7.60;99.90
59313;DHT22;45084;51.486;7.366;2023-12-28T01:08:01;7.60;99.90
59313;DHT22;45084;51.486;7.366;2023-12-28T01:10:27;7.60;99.90
59313;DHT22;45084;51.486;7.366;2023-12-28T01:12:53;7.60;99.90
59313;DHT22;45084;51.486;7.366;2023-12-28T01:15:19;7.80;99.90
59313;DHT22;45084;51.486;7.366;2023-12-28T01:17:46;7.80;99.90
59313;DHT22;45084;51.486;7.366;2023-12-28T01:20:11;7.90;99.90
59313;DHT22;45084;51.486;7.366;2023-12-28T01:22:37;7.90;99.90
59313;DHT22;45084;51.486;7.366;2023-12-28T01:25:03;7.90;99.90
59313;DHT22;45084;51.486;7.366;2023-12-28T01:27:29;8.00;99.90
59313;DHT22;45084;51.486;7.366;2023-12-28T01:29:54;8.10;99.90
59313;DHT22;45084;51.486;7.366;2023-12-28T01:32:20;8.00;99.90
59313;DHT22;45084;51.486;7.366;2023-12-28T01:34:45;8.10;99.90
59313;DHT22;45084;51.486;7.366;2023-12-28T01:37:11;8.00;99.90
59313;DHT22;45084;51.486;7.366;2023-12-28T01:39:37;8.10;99.90
59313;DHT22;45084;51.486;7.366;2023-12-28T01:42:02;8.10;99.90
59313;DHT22;45084;51.486;7.366;2023-12-28T01:44:29;8.20;99.90
59313;DHT22;45084;51.486;7.366;2023-12-28T01:46:55;8.30;99.90
59313;DHT22;45084;51.486;7.366;2023-12-28T01:49:21;8.40;99.90
59313;DHT22;45084;51.486;7.366;2023-12-28T01:51:47;8.40;99.90
59313;DHT22;45084;51.486;7.366;2023-12-28T01:54:13;8.50;99.90
59313;DHT22;45084;51.486;7.366;2023-12-28T01:56:39;8.60;99.90
59313;DHT22;45084;51.486;7.366;2023-12-28T01:59:05;8.60;99.90
59313;DHT22;45084;51.486;7.366;2023-12-28T02:01:31;8.70;99.90
59313;DHT22;45084;51.486;7.366;2023-12-28T02:03:57;8.70;99.90
59313;DHT22;45084;51.486;7.366;2023-12-28T02:06:23;8.80;99.90
59313;DHT22;45084;51.486;7.366;2023-12-28T02:08:49;8.80;99.90
59313;DHT22;45084;51.486;7.366;2023-12-28T02:11:15;8.90;99.90
59313;DHT22;45084;51.486;7.366;2023-12-28T02:13:41;8.90;99.90
59313;DHT22;45084;51.486;7.366;2023-12-28T02:16:20;8.90;99.90
59313;DHT22;45084;51.486;7.366;2023-12-28T02:18:50;8.90;99.90
59313;DHT22;45084;51.486;7.366;2023-12-28T02:21:17;8.90;99.90
59313;DHT22;45084;51.486;7.366;2023-12-28T02:23:47;8.90;99.90
59313;DHT22;45084;51.486;7.366;2023-12-28T02:26:14;8.80;99.90
59313;DHT22;45084;51.486;7.366;2023-12-28T02:28:39;8.80;99.90
59313;DHT22;45084;51.486;7.366;2023-12-28T02:31:05;8.70;99.90
59313;DHT22;45084;51.486;7.366;2023-12-28T02:33:38;8.90;99.90
59313;DHT22;45084;51.486;7.366;2023-12-28T02:36:11;9.00;99.90
59313;DHT22;45084;51.486;7.366;2023-12-28T02:38:39;9.00;99.90
59313;DHT22;45084;51.486;7.366;2023-12-28T02:41:05;9.00;99.90
59313;DHT22;45084;51.486;7.366;2023-12-28T02:43:31;9.00;99.90
59313;DHT22;45084;51.486;7.366;2023-12-28T02:45:58;9.00;99.90
59313;DHT22;45084;51.486;7.366;2023-12-28T02:48:24;9.10;99.90
59313;DHT22;45084;51.486;7.366;2023-12-28T02:50:51;9.10;99.90
59313;DHT22;45084;51.486;7.366;2023-12-28T02:53:17;9.20;99.90
59313;DHT22;45084;51.486;7.366;2023-12-28T02:55:42;9.20;99.90
59313;DHT22;45084;51.486;7.366;2023-12-28T02:58:08;9.20;99.90
59313;DHT22;45084;51.486;7.366;2023-12-28T03:00:33;9.20;99.90
59313;DHT22;45084;51.486;7.366;2023-12-28T03:02:59;9.20;99.90
59313;DHT22;45084;51.486;7.366;2023-12-28T03:05:24;9.10;99.90
59313;DHT22;45084;51.486;7.366;2023-12-28T03:07:50;9.20;99.90
59313;DHT22;45084;51.486;7.366;2023-12-28T03:10:16;9.10;99.90
59313;DHT22;45084;51.486;7.366;2023-12-28T03:12:41;9.00;99.90
59313;DHT22;45084;51.486;7.366;2023-12-28T03:15:07;9.10;99.90
59313;DHT22;45084;51.486;7.366;2023-12-28T03:17:33;8.90;99.90
59313;DHT22;45084;51.486;7.366;2023-12-28T03:19:59;8.90;99.90
59313;DHT22;45084;51.486;7.366;2023-12-28T03:22:25;8.80;99.90
59313;DHT22;45084;51.486;7.366;2023-12-28T03:24:51;8.90;99.90
59313;DHT22;45084;51.486;7.366;2023-12-28T03:27:17;8.90;99.90
59313;DHT22;45084;51.486;7.366;2023-12-28T03:29:42;8.80;99.90
59313;DHT22;45084;51.486;7.366;2023-12-28T03:32:08;8.80;99.90
59313;DHT22;45084;51.486;7.366;2023-12-28T03:34:34;8.80;99.90
59313;DHT22;45084;51.486;7.366;2023-12-28T03:37:00;8.90;99.90
59313;DHT22;45084;51.486;7.366;2023-12-28T03:39:25;8.90;99.90
59313;DHT22;45084;51.486;7.366;2023-12-28T03:41:51;9.00;99.90
59313;DHT22;45084;51.486;7.366;2023-12-28T03:44:21;9.00;99.90
59313;DHT22;45084;51.486;7.366;2023-12-28T03:46:48;9.00;99.90
59313;DHT22;45084;51.486;7.366;2023-12-28T03:49:21;8.90;99.90
59313;DHT22;45084;51.486;7.366;2023-12-28T03:51:49;8.90;99.90
59313;DHT22;45084;51.486;7.366;2023-12-28T03:54:18;8.90;99.90
59313;DHT22;45084;51.486;7.366;2023-12-28T03:56:45;8.90;99.90
59313;DHT22;45084;51.486;7.366;2023-12-28T03:59:11;8.90;99.90
59313;DHT22;45084;51.486;7.366;2023-12-28T04:01:37;9.00;99.90
59313;DHT22;45084;51.486;7.366;2023-12-28T04:04:02;9.10;99.90
59313;DHT22;45084;51.486;7.366;2023-12-28T04:06:28;9.10;99.90
59313;DHT22;45084;51.486;7.366;2023-12-28T04:08:53;9.00;99.90
59313;DHT22;45084;51.486;7.366;2023-12-28T04:11:19;9.10;99.90
59313;DHT22;45084;51.486;7.366;2023-12-28T04:13:45;9.10;99.90
59313;DHT22;45084;51.486;7.366;2023-12-28T04:16:14;9.10;99.90
59313;DHT22;45084;51.486;7.366;2023-12-28T04:18:41;9.10;99.90
59313;DHT22;45084;51.486;7.366;2023-12-28T04:21:13;9.10;99.90
59313;DHT22;45084;51.486;7.366;2023-12-28T04:23:40;9.20;99.90
59313;DHT22;45084;51.486;7.366;2023-12-28T04:26:06;9.20;99.90
59313;DHT22;45084;51.486;7.366;2023-12-28T04:28:32;9.20;99.90
59313;DHT22;45084;51.486;7.366;2023-12-28T04:31:05;9.10;99.90
59313;DHT22;45084;51.486;7.366;2023-12-28T04:33:30;9.20;99.90
59313;DHT22;45084;51.486;7.366;2023-12-28T04:35:56;9.20;99.90
59313;DHT22;45084;51.486;7.366;2023-12-28T04:38:22;9.20;99.90
59313;DHT22;45084;51.486;7.366;2023-12-28T04:40:47;9.30;99.90
59313;DHT22;45084;51.486;7.366;2023-12-28T04:43:13;9.30;99.90
59313;DHT22;45084;51.486;7.366;2023-12-28T04:45:38;9.40;99.90
59313;DHT22;45084;51.486;7.366;2023-12-28T04:48:04;9.40;99.90
59313;DHT22;45084;51.486;7.366;2023-12-28T04:50:30;9.30;99.90
59313;DHT22;45084;51.486;7.366;2023-12-28T04:52:55;9.20;99.90
59313;DHT22;45084;51.486;7.366;2023-12-28T04:55:21;9.20;99.90
59313;DHT22;45084;51.486;7.366;2023-12-28T04:57:47;9.30;99.90
59313;DHT22;45084;51.486;7.366;2023-12-28T05:00:12;9.40;99.90
59313;DHT22;45084;51.486;7.366;2023-12-28T05:02:38;9.30;99.90
59313;DHT22;45084;51.486;7.366;2023-12-28T05:05:04;9.30;99.90
59313;DHT22;45084;51.486;7.366;2023-12-28T05:07:29;9.50;99.90
59313;DHT22;45084;51.486;7.366;2023-12-28T05:09:55;9.50;99.90
59313;DHT22;45084;51.486;7.366;2023-12-28T05:12:20;9.60;99.90
59313;DHT22;45084;51.486;7.366;2023-12-28T05:14:46;9.60;99.90
59313;DHT22;45084;51.486;7.366;2023-12-28T05:17:12;9.60;99.90
59313;DHT22;45084;51.486;7.366;2023-12-28T05:19:37;9.60;99.90
59313;DHT22;45084;51.486;7.366;2023-12-28T05:22:03;9.70;99.90
59313;DHT22;45084;51.486;7.366;2023-12-28T05:24:32;9.70;99.90
59313;DHT22;45084;51.486;7.366;2023-12-28T05:26:57;9.70;99.90
59313;DHT22;45084;51.486;7.366;2023-12-28T05:29:23;9.70;99.90
59313;DHT22;45084;51.486;7.366;2023-12-28T05:31:48;9.70;99.90
59313;DHT22;45084;51.486;7.366;2023-12-28T05:34:14;9.70;99.90
59313;DHT22;45084;51.486;7.366;2023-12-28T05:36:40;9.70;99.90
59313;DHT22;45084;51.486;7.366;2023-12-28T05:39:07;9.70;99.90
59313;DHT22;45084;51.486;7.366;2023-12-28T05:41:34;9.70;99.90
59313;DHT22;45084;51.486;7.366;2023-12-28T05:44:00;9.60;99.90
59313;DHT22;45084;51.486;7.366;2023-12-28T05:46:26;9.70;99.90
59313;DHT22;45084;51.486;7.366;2023-12-28T05:48:51;9.60;99.90
59313;DHT22;45084;51.486;7.366;2023-12-28T05:51:17;9.60;99.90
59313;DHT22;45084;51.486;7.366;2023-12-28T05:53:44;9.70;99.90
59313;DHT22;45084;51.486;7.366;2023-12-28T05:56:09;9.60;99.90
59313;DHT22;45084;51.486;7.366;2023-12-28T05:58:35;9.50;99.90
59313;DHT22;45084;51.486;7.366;2023-12-28T06:01:02;9.60;99.90
59313;DHT22;45084;51.486;7.366;2023-12-28T06:03:31;9.50;99.90
59313;DHT22;45084;51.486;7.366;2023-12-28T06:05:57;9.60;99.90
59313;DHT22;45084;51.486;7.366;2023-12-28T06:08:22;9.60;99.90
59313;DHT22;45084;51.486;7.366;2023-12-28T06:10:48;9.50;99.90
59313;DHT22;45084;51.486;7.366;2023-12-28T06:13:13;9.70;99.90
59313;DHT22;45084;51.486;7.366;2023-12-28T06:15:39;9.60;99.90
59313;DHT22;45084;51.486;7.366;2023-12-28T06:18:04;9.60;99.90
59313;DHT22;45084;51.486;7.366;2023-12-28T06:20:30;9.70;99.90
59313;DHT22;45084;51.486;7.366;2023-12-28T06:22:55;9.70;99.90
59313;DHT22;45084;51.486;7.366;2023-12-28T06:25:21;9.70;99.90
59313;DHT22;45084;51.486;7.366;2023-12-28T06:27:47;9.70;99.90
59313;DHT22;45084;51.486;7.366;2023-12-28T06:30:13;9.70;99.90
59313;DHT22;45084;51.486;7.366;2023-12-28T06:32:38;9.70;99.90
59313;DHT22;45084;51.486;7.366;2023-12-28T06:35:05;9.60;99.90
59313;DHT22;45084;51.486;7.366;2023-12-28T06:37:30;9.60;99.90
59313;DHT22;45084;51.486;7.366;2023-12-28T06:39:56;9.60;99.90
59313;DHT22;45084;51.486;7.366;2023-12-28T06:42:22;9.50;99.90
59313;DHT22;45084;51.486;7.366;2023-12-28T06:44:47;9.50;99.90
59313;DHT22;45084;51.486;7.366;2023-12-28T06:47:13;9.40;99.90
59313;DHT22;45084;51.486;7.366;2023-12-28T06:49:38;9.50;99.90
59313;DHT22;45084;51.486;7.366;2023-12-28T06:52:04;9.40;99.90
59313;DHT22;45084;51.486;7.366;2023-12-28T06:54:29;9.40;99.90
59313;DHT22;45084;51.486;7.366;2023-12-28T06:56:55;9.30;99.90
59313;DHT22;45084;51.486;7.366;2023-12-28T06:59:21;9.20;99.90
59313;DHT22;45084;51.486;7.366;2023-12-28T07:01:46;9.20;99.90
59313;DHT22;45084;51.486;7.366;2023-12-28T07:04:13;9.10;99.90
59313;DHT22;45084;51.486;7.366;2023-12-28T07:06:39;9.00;99.90
59313;DHT22;45084;51.486;7.366;2023-12-28T07:09:05;9.00;99.90
59313;DHT22;45084;51.486;7.366;2023-12-28T07:11:32;9.00;99.90
59313;DHT22;45084;51.486;7.366;2023-12-28T07:13:57;8.90;99.90
59313;DHT22;45084;51.486;7.366;2023-12-28T07:16:23;9.00;99.90
59313;DHT22;45084;51.486;7.366;2023-12-28T07:18:49;8.90;99.90
59313;DHT22;45084;51.486;7.366;2023-12-28T07:21:14;9.00;99.90
59313;DHT22;45084;51.486;7.366;2023-12-28T07:23:40;9.10;99.90
59313;DHT22;45084;51.486;7.366;2023-12-28T07:26:06;9.10;99.90
59313;DHT22;45084;51.486;7.366;2023-12-28T07:28:31;9.00;99.90
59313;DHT22;45084;51.486;7.366;2023-12-28T07:30:57;9.00;99.90
59313;DHT22;45084;51.486;7.366;2023-12-28T07:33:22;9.00;99.90
59313;DHT22;45084;51.486;7.366;2023-12-28T07:35:48;9.00;99.90
59313;DHT22;45084;51.486;7.366;2023-12-28T07:38:14;9.00;99.90
59313;DHT22;45084;51.486;7.366;2023-12-28T07:40:39;8.90;99.90
59313;DHT22;45084;51.486;7.366;2023-12-28T07:43:05;9.00;99.90
59313;DHT22;45084;51.486;7.366;2023-12-28T07:45:31;9.00;99.90
59313;DHT22;45084;51.486;7.366;2023-12-28T07:47:58;9.00;99.90
59313;DHT22;45084;51.486;7.366;2023-12-28T07:50:24;9.10;99.90
59313;DHT22;45084;51.486;7.366;2023-12-28T07:52:50;9.10;99.90
59313;DHT22;45084;51.486;7.366;2023-12-28T07:55:17;9.10;99.90
59313;DHT22;45084;51.486;7.366;2023-12-28T07:57:43;9.10;99.90
59313;DHT22;45084;51.486;7.366;2023-12-28T08:00:09;9.10;99.90
59313;DHT22;45084;51.486;7.366;2023-12-28T08:02:36;9.10;99.90
59313;DHT22;45084;51.486;7.366;2023-12-28T08:05:02;9.20;99.90
59313;DHT22;45084;51.486;7.366;2023-12-28T08:07:28;9.10;99.90
59313;DHT22;45084;51.486;7.366;2023-12-28T08:09:53;9.10;99.90
59313;DHT22;45084;51.486;7.366;2023-12-28T08:12:21;9.30;99.90
59313;DHT22;45084;51.486;7.366;2023-12-28T08:14:47;9.30;99.90
59313;DHT22;45084;51.486;7.366;2023-12-28T08:17:13;9.30;99.90
59313;DHT22;45084;51.486;7.366;2023-12-28T08:19:38;9.50;99.90
59313;DHT22;45084;51.486;7.366;2023-12-28T08:22:04;9.50;99.90
59313;DHT22;45084;51.486;7.366;2023-12-28T08:24:30;9.50;99.90
59313;DHT22;45084;51.486;7.366;2023-12-28T08:26:55;9.60;99.90
59313;DHT22;45084;51.486;7.366;2023-12-28T08:29:25;9.50;99.90
59313;DHT22;45084;51.486;7.366;2023-12-28T08:31:50;9.50;99.90
59313;DHT22;45084;51.486;7.366;2023-12-28T08:34:16;9.50;99.90
59313;DHT22;45084;51.486;7.366;2023-12-28T08:36:41;9.50;99.90
59313;DHT22;45084;51.486;7.366;2023-12-28T08:39:07;9.60;99.90
59313;DHT22;45084;51.486;7.366;2023-12-28T08:41:33;9.60;99.90
59313;DHT22;45084;51.486;7.366;2023-12-28T08:43:59;9.70;99.90
59313;DHT22;45084;51.486;7.366;2023-12-28T08:46:26;9.70;99.90
59313;DHT22;45084;51.486;7.366;2023-12-28T08:48:52;9.80;99.90
59313;DHT22;45084;51.486;7.366;2023-12-28T08:51:19;9.70;99.90
59313;DHT22;45084;51.486;7.366;2023-12-28T08:53:46;9.80;99.90
59313;DHT22;45084;51.486;7.366;2023-12-28T08:56:20;9.80;99.90
59313;DHT22;45084;51.486;7.366;2023-12-28T08:58:46;9.80;99.90
59313;DHT22;45084;51.486;7.366;2023-12-28T09:01:21;9.90;99.90
59313;DHT22;45084;51.486;7.366;2023-12-28T09:03:55;9.90;99.90
59313;DHT22;45084;51.486;7.366;2023-12-28T09:06:21;10.00;99.90
59313;DHT22;45084;51.486;7.366;2023-12-28T09:08:50;9.90;99.90
59313;DHT22;45084;51.486;7.366;2023-12-28T09:11:18;10.00;99.90
59313;DHT22;45084;51.486;7.366;2023-12-28T09:13:45;10.00;99.90
59313;DHT22;45084;51.486;7.366;2023-12-28T09:16:12;10.00;99.90
59313;DHT22;45084;51.486;7.366;2023-12-28T09:18:39;10.00;99.90
59313;DHT22;45084;51.486;7.366;2023-12-28T09:21:06;10.10;99.90
59313;DHT22;45084;51.486;7.366;2023-12-28T09:23:32;10.10;99.90
59313;DHT22;45084;51.486;7.366;2023-12-28T09:26:02;10.10;99.90
59313;DHT22;45084;51.486;7.366;2023-12-28T09:28:32;10.10;99.90
59313;DHT22;45084;51.486;7.366;2023-12-28T09:31:00;10.10;99.90
59313;DHT22;45084;51.486;7.366;2023-12-28T09:33:26;10.00;99.90
59313;DHT22;45084;51.486;7.366;2023-12-28T09:35:51;10.10;99.90
59313;DHT22;45084;51.486;7.366;2023-12-28T09:38:18;10.10;99.90
59313;DHT22;45084;51.486;7.366;2023-12-28T09:40:44;10.10;99.90
59313;DHT22;45084;51.486;7.366;2023-12-28T09:43:19;10.10;99.90
59313;DHT22;45084;51.486;7.366;2023-12-28T09:45:47;10.20;99.90
59313;DHT22;45084;51.486;7.366;2023-12-28T09:48:16;10.20;99.90
59313;DHT22;45084;51.486;7.366;2023-12-28T09:50:43;10.20;99.90
59313;DHT22;45084;51.486;7.366;2023-12-28T09:53:08;10.30;99.90
59313;DHT22;45084;51.486;7.366;2023-12-28T09:55:34;10.40;99.90
59313;DHT22;45084;51.486;7.366;2023-12-28T09:58:00;10.40;99.90
59313;DHT22;45084;51.486;7.366;2023-12-28T10:00:27;10.40;99.90
59313;DHT22;45084;51.486;7.366;2023-12-28T10:02:53;10.50;99.90
59313;DHT22;45084;51.486;7.366;2023-12-28T10:05:18;10.50;99.90
59313;DHT22;45084;51.486;7.366;2023-12-28T10:07:45;10.50;99.90
59313;DHT22;45084;51.486;7.366;2023-12-28T10:10:12;10.50;99.90
59313;DHT22;45084;51.486;7.366;2023-12-28T10:12:38;10.40;99.90
59313;DHT22;45084;51.486;7.366;2023-12-28T10:15:06;10.30;99.90
59313;DHT22;45084;51.486;7.366;2023-12-28T10:17:33;10.40;99.90
59313;DHT22;45084;51.486;7.366;2023-12-28T10:20:03;10.50;99.90
59313;DHT22;45084;51.486;7.366;2023-12-28T10:22:30;10.50;99.90
59313;DHT22;45084;51.486;7.366;2023-12-28T10:24:56;10.50;99.90
59313;DHT22;45084;51.486;7.366;2023-12-28T10:27:22;10.50;99.90
59313;DHT22;45084;51.486;7.366;2023-12-28T10:29:48;10.50;99.90
59313;DHT22;45084;51.486;7.366;2023-12-28T10:32:13;10.60;99.90
59313;DHT22;45084;51.486;7.366;2023-12-28T10:34:39;10.60;99.90
59313;DHT22;45084;51.486;7.366;2023-12-28T10:37:05;10.60;99.90
59313;DHT22;45084;51.486;7.366;2023-12-28T10:39:32;10.60;99.90
59313;DHT22;45084;51.486;7.366;2023-12-28T10:42:00;10.70;99.90
59313;DHT22;45084;51.486;7.366;2023-12-28T10:44:32;10.70;99.90
59313;DHT22;45084;51.486;7.366;2023-12-28T10:47:02;10.70;99.90
59313;DHT22;45084;51.486;7.366;2023-12-28T10:49:30;10.80;99.90
59313;DHT22;45084;51.486;7.366;2023-12-28T10:51:55;10.70;99.90
59313;DHT22;45084;51.486;7.366;2023-12-28T10:57:22;10.80;99.90
59313;DHT22;45084;51.486;7.366;2023-12-28T11:02:28;10.70;99.90
59313;DHT22;45084;51.486;7.366;2023-12-28T11:04:55;10.70;99.90
59313;DHT22;45084;51.486;7.366;2023-12-28T11:07:21;10.70;99.90
59313;DHT22;45084;51.486;7.366;2023-12-28T11:09:48;10.70;99.90
59313;DHT22;45084;51.486;7.366;2023-12-28T11:12:16;10.70;99.90
59313;DHT22;45084;51.486;7.366;2023-12-28T11:14:47;10.70;99.90
59313;DHT22;45084;51.486;7.366;2023-12-28T11:17:15;10.80;99.90
59313;DHT22;45084;51.486;7.366;2023-12-28T11:19:41;10.70;99.90
59313;DHT22;45084;51.486;7.366;2023-12-28T11:22:08;10.80;99.90
59313;DHT22;45084;51.486;7.366;2023-12-28T11:24:34;10.80;99.90
59313;DHT22;45084;51.486;7.366;2023-12-28T11:27:00;10.90;99.90
59313;DHT22;45084;51.486;7.366;2023-12-28T11:29:29;10.90;99.90
59313;DHT22;45084;51.486;7.366;2023-12-28T11:31:58;10.90;99.90
59313;DHT22;45084;51.486;7.366;2023-12-28T11:34:33;10.90;99.90
59313;DHT22;45084;51.486;7.366;2023-12-28T11:37:06;10.90;99.90
59313;DHT22;45084;51.486;7.366;2023-12-28T11:39:34;10.90;99.90
59313;DHT22;45084;51.486;7.366;2023-12-28T11:42:05;10.90;99.90
59313;DHT22;45084;51.486;7.366;2023-12-28T11:44:37;11.00;99.90
59313;DHT22;45084;51.486;7.366;2023-12-28T11:47:20;11.00;99.90
59313;DHT22;45084;51.486;7.366;2023-12-28T11:49:46;11.10;99.90
59313;DHT22;45084;51.486;7.366;2023-12-28T11:52:32;11.20;99.90
59313;DHT22;45084;51.486;7.366;2023-12-28T11:54:59;11.20;99.90
59313;DHT22;45084;51.486;7.366;2023-12-28T11:57:25;11.20;99.90
59313;DHT22;45084;51.486;7.366;2023-12-28T12:00:00;11.20;99.90
59313;DHT22;45084;51.486;7.366;2023-12-28T12:02:26;11.20;99.90
59313;DHT22;45084;51.486;7.366;2023-12-28T12:04:55;11.20;99.90
59313;DHT22;45084;51.486;7.366;2023-12-28T12:07:23;11.20;99.90
59313;DHT22;45084;51.486;7.366;2023-12-28T12:09:55;11.20;99.90
59313;DHT22;45084;51.486;7.366;2023-12-28T12:12:21;11.20;99.90
59313;DHT22;45084;51.486;7.366;2023-12-28T12:14:46;11.20;99.90
59313;DHT22;45084;51.486;7.366;2023-12-28T12:17:12;11.20;99.90
59313;DHT22;45084;51.486;7.366;2023-12-28T12:19:38;11.20;99.90
59313;DHT22;45084;51.486;7.366;2023-12-28T12:22:03;11.20;99.90
59313;DHT22;45084;51.486;7.366;2023-12-28T12:24:29;11.30;99.90
59313;DHT22;45084;51.486;7.366;2023-12-28T12:26:57;11.20;99.90
59313;DHT22;45084;51.486;7.366;2023-12-28T12:29:22;11.30;99.90
59313;DHT22;45084;51.486;7.366;2023-12-28T12:31:48;11.20;99.90
59313;DHT22;45084;51.486;7.366;2023-12-28T12:34:17;11.20;99.90
59313;DHT22;45084;51.486;7.366;2023-12-28T12:36:43;11.20;99.90
59313;DHT22;45084;51.486;7.366;2023-12-28T12:39:13;11.30;99.90
59313;DHT22;45084;51.486;7.366;2023-12-28T12:41:39;11.20;99.90
59313;DHT22;45084;51.486;7.366;2023-12-28T12:44:05;11.30;99.90
59313;DHT22;45084;51.486;7.366;2023-12-28T12:46:30;11.30;99.90
59313;DHT22;45084;51.486;7.366;2023-12-28T12:49:00;11.30;99.90
59313;DHT22;45084;51.486;7.366;2023-12-28T12:51:28;11.30;99.90
59313;DHT22;45084;51.486;7.366;2023-12-28T12:54:00;11.30;99.90
59313;DHT22;45084;51.486;7.366;2023-12-28T12:56:28;11.30;99.90
59313;DHT22;45084;51.486;7.366;2023-12-28T12:58:55;11.30;99.90
59313;DHT22;45084;51.486;7.366;2023-12-28T13:01:21;11.30;99.90
59313;DHT22;45084;51.486;7.366;2023-12-28T13:03:47;11.30;99.90
59313;DHT22;45084;51.486;7.366;2023-12-28T13:06:13;11.30;99.90
59313;DHT22;45084;51.486;7.366;2023-12-28T13:08:38;11.30;99.90
59313;DHT22;45084;51.486;7.366;2023-12-28T13:11:04;11.30;99.90
59313;DHT22;45084;51.486;7.366;2023-12-28T13:13:33;11.30;99.90
59313;DHT22;45084;51.486;7.366;2023-12-28T13:15:58;11.20;99.90
59313;DHT22;45084;51.486;7.366;2023-12-28T13:18:24;11.20;99.90
59313;DHT22;45084;51.486;7.366;2023-12-28T13:20:49;11.20;99.90
59313;DHT22;45084;51.486;7.366;2023-12-28T13:23:15;11.20;99.90
59313;DHT22;45084;51.486;7.366;2023-12-28T13:25:41;11.10;99.90
59313;DHT22;45084;51.486;7.366;2023-12-28T13:28:07;11.10;99.90
59313;DHT22;45084;51.486;7.366;2023-12-28T13:30:34;11.10;99.90
59313;DHT22;45084;51.486;7.366;2023-12-28T13:33:02;11.10;99.90
59313;DHT22;45084;51.486;7.366;2023-12-28T13:35:28;11.10;99.90
59313;DHT22;45084;51.486;7.366;2023-12-28T13:37:54;11.10;99.90
59313;DHT22;45084;51.486;7.366;2023-12-28T13:40:20;11.10;99.90
59313;DHT22;45084;51.486;7.366;2023-12-28T13:42:46;11.10;99.90
59313;DHT22;45084;51.486;7.366;2023-12-28T13:45:12;11.00;99.90
59313;DHT22;45084;51.486;7.366;2023-12-28T13:47:37;11.00;99.90
59313;DHT22;45084;51.486;7.366;2023-12-28T13:50:03;11.00;99.90
59313;DHT22;45084;51.486;7.366;2023-12-28T13:52:29;11.00;99.90
59313;DHT22;45084;51.486;7.366;2023-12-28T13:54:54;11.00;99.90
59313;DHT22;45084;51.486;7.366;2023-12-28T13:57:20;10.90;99.90
59313;DHT22;45084;51.486;7.366;2023-12-28T13:59:46;10.90;99.90
59313;DHT22;45084;51.486;7.366;2023-12-28T14:02:11;10.80;99.90
59313;DHT22;45084;51.486;7.366;2023-12-28T14:04:37;10.80;99.90
59313;DHT22;45084;51.486;7.366;2023-12-28T14:07:02;10.80;99.90
59313;DHT22;45084;51.486;7.366;2023-12-28T14:09:29;10.70;99.90
59313;DHT22;45084;51.486;7.366;2023-12-28T14:11:54;10.60;99.90
59313;DHT22;45084;51.486;7.366;2023-12-28T14:14:20;10.60;99.90
59313;DHT22;45084;51.486;7.366;2023-12-28T14:16:45;10.60;99.90
59313;DHT22;45084;51.486;7.366;2023-12-28T14:19:11;10.70;99.90
59313;DHT22;45084;51.486;7.366;2023-12-28T14:21:38;10.70;99.90
59313;DHT22;45084;51.486;7.366;2023-12-28T14:24:04;10.70;99.90
59313;DHT22;45084;51.486;7.366;2023-12-28T14:26:34;10.60;99.90
59313;DHT22;45084;51.486;7.366;2023-12-28T14:29:05;10.60;99.90
59313;DHT22;45084;51.486;7.366;2023-12-28T14:31:32;10.50;99.90
59313;DHT22;45084;51.486;7.366;2023-12-28T14:33:57;10.50;99.90
59313;DHT22;45084;51.486;7.366;2023-12-28T14:36:30;10.50;99.90
59313;DHT22;45084;51.486;7.366;2023-12-28T14:39:00;10.50;99.90
59313;DHT22;45084;51.486;7.366;2023-12-28T14:41:27;10.40;99.90
59313;DHT22;45084;51.486;7.366;2023-12-28T14:43:55;10.40;99.90
59313;DHT22;45084;51.486;7.366;2023-12-28T14:46:22;10.50;99.90
59313;DHT22;45084;51.486;7.366;2023-12-28T14:48:47;10.50;99.90
59313;DHT22;45084;51.486;7.366;2023-12-28T14:51:13;10.50;99.90
59313;DHT22;45084;51.486;7.366;2023-12-28T14:53:38;10.50;99.90
59313;DHT22;45084;51.486;7.366;2023-12-28T14:56:04;10.40;99.90
59313;DHT22;45084;51.486;7.366;2023-12-28T14:58:30;10.40;99.90
59313;DHT22;45084;51.486;7.366;2023-12-28T15:00:56;10.20;99.90
59313;DHT22;45084;51.486;7.366;2023-12-28T15:03:22;10.20;99.90
59313;DHT22;45084;51.486;7.366;2023-12-28T15:05:48;10.30;99.90
59313;DHT22;45084;51.486;7.366;2023-12-28T15:08:14;10.30;99.90
59313;DHT22;45084;51.486;7.366;2023-12-28T15:10:40;10.20;99.90
59313;DHT22;45084;51.486;7.366;2023-12-28T15:13:06;10.20;99.90
59313;DHT22;45084;51.486;7.366;2023-12-28T15:15:32;10.10;99.90
59313;DHT22;45084;51.486;7.366;2023-12-28T15:17:58;10.20;99.90
59313;DHT22;45084;51.486;7.366;2023-12-28T15:20:24;10.00;99.90
59313;DHT22;45084;51.486;7.366;2023-12-28T15:22:50;10.00;99.90
59313;DHT22;45084;51.486;7.366;2023-12-28T15:25:19;9.90;99.90
59313;DHT22;45084;51.486;7.366;2023-12-28T15:27:45;9.90;99.90
59313;DHT22;45084;51.486;7.366;2023-12-28T15:30:11;9.90;99.90
59313;DHT22;45084;51.486;7.366;2023-12-28T15:32:40;9.90;99.90
59313;DHT22;45084;51.486;7.366;2023-12-28T15:35:09;9.90;99.90
59313;DHT22;45084;51.486;7.366;2023-12-28T15:37:35;9.90;99.90
59313;DHT22;45084;51.486;7.366;2023-12-28T15:40:00;9.80;99.90